West River, Maryland
Current Conditions -  °F | °C
As of 12:54 PM on Monday 22 Dec 2014 (Local Time) from KNAK Reporting Station
Light Rain Light Rain  
Wind Chill: 30°   Ceiling: 6500
Heat Index: 35°   Visibility: 5mi
Dew Point: 30°   Wind: 6mph
Humidity: 82%   Direction: 340°NNW
Pressure: 30.23"   Gusts: NA
Location:  38.85°N, 76.6°W
Report Text: KNAK 221754Z AUTO 34005KT 5SM -RA OVC065 02/M01 A3023 RMK AO2 UPB13E15B45E47 SLP240 P0000 60000 T00171011 10022 20006 56026
Loading
Personal Weather Stations






























Interactive Weather Map New forecast layout! Learn more

10-Day Weather Forecast

Advertisements
Track Severe Weather on mobile